Time;durP1;ratioP1;P1;durP2;ratioP2;P2;SDS_P1;SDS_P2;PMS_P1;PMS_P2;Temp;Humidity;BMP_temperature;BMP_pressure;BME280_temperature;BME280_humidity;BME280_pressure;Samples;Min_cycle;Max_cycle;Signal;HPM_P1;HPM_P2
2023/01/11 00:01:50;;;;;;;2.07;1.00;;;6.40;99.90;;;;;;5066128;28;20212;-71
2023/01/11 00:04:17;;;;;;;1.13;0.90;;;6.50;99.90;;;;;;5039900;28;20500;-73
2023/01/11 00:06:43;;;;;;;1.37;1.00;;;6.50;99.90;;;;;;5031346;28;20451;-71
2023/01/11 00:09:09;;;;;;;2.30;1.13;;;6.50;99.90;;;;;;5050205;28;21062;-73
2023/01/11 00:11:35;;;;;;;2.73;1.40;;;6.50;99.90;;;;;;5058576;28;20537;-72
2023/01/11 00:14:00;;;;;;;4.80;1.40;;;6.50;99.90;;;;;;5050845;28;20243;-72
2023/01/11 00:16:26;;;;;;;2.20;1.20;;;6.50;99.90;;;;;;5041426;28;20211;-72
2023/01/11 00:18:51;;;;;;;2.13;1.10;;;6.50;99.90;;;;;;5053514;28;20228;-72
2023/01/11 00:21:17;;;;;;;0.60;0.60;;;6.60;99.90;;;;;;5050925;28;20223;-72
2023/01/11 00:23:43;;;;;;;1.10;1.00;;;6.60;99.90;;;;;;5043171;28;20215;-72
2023/01/11 00:26:12;;;;;;;0.80;0.80;;;6.60;99.90;;;;;;5051858;28;20226;-72
2023/01/11 00:28:37;;;;;;;3.70;0.97;;;6.50;99.90;;;;;;5051007;28;20316;-72
2023/01/11 00:31:03;;;;;;;0.80;0.80;;;6.60;99.90;;;;;;5046556;28;20451;-72
2023/01/11 00:33:29;;;;;;;1.17;1.03;;;6.60;99.90;;;;;;5043248;28;20215;-72
2023/01/11 00:35:55;;;;;;;4.30;0.90;;;6.60;99.90;;;;;;5055532;28;20446;-72
2023/01/11 00:49:21;;;;;;;1.00;0.90;;;6.60;99.90;;;;;;5049898;28;20853;-71
2023/01/11 00:51:46;;;;;;;1.30;1.20;;;6.60;99.90;;;;;;5051808;28;20518;-72
2023/01/11 00:54:15;;;;;;;2.00;1.17;;;6.60;99.90;;;;;;5043234;28;20454;-72
2023/01/11 00:56:40;;;;;;;1.10;1.00;;;6.60;99.90;;;;;;5057018;28;20234;-71
2023/01/11 00:59:06;;;;;;;1.30;0.90;;;6.60;99.90;;;;;;5059413;28;20972;-72
2023/01/11 01:01:32;;;;;;;2.03;0.90;;;6.60;99.90;;;;;;5052566;28;20284;-72
2023/01/11 01:04:01;;;;;;;2.50;1.10;;;6.60;99.90;;;;;;5052354;28;20530;-72
2023/01/11 01:06:27;;;;;;;2.97;0.83;;;6.60;99.90;;;;;;5052044;28;20298;-72
2023/01/11 01:08:53;;;;;;;1.30;1.20;;;6.60;99.90;;;;;;5056559;28;20569;-72
2023/01/11 01:11:19;;;;;;;1.97;1.40;;;6.60;99.90;;;;;;5056997;28;20309;-72
2023/01/11 01:16:31;;;;;;;6.70;1.90;;;6.60;99.90;;;;;;5060776;28;20247;-72
2023/01/11 01:18:57;;;;;;;1.87;1.50;;;6.60;99.90;;;;;;5032935;28;20541;-72
2023/01/11 01:21:23;;;;;;;1.67;1.30;;;6.70;99.90;;;;;;5040072;28;20530;-72
2023/01/11 01:23:56;;;;;;;2.30;1.57;;;6.70;99.90;;;;;;5031001;28;20463;-72
2023/01/11 01:26:22;;;;;;;5.93;2.03;;;6.70;99.90;;;;;;5084106;28;20456;-71
2023/01/11 01:28:49;;;;;;;1.50;1.40;;;6.70;99.90;;;;;;5057424;28;20465;-72
2023/01/11 01:31:15;;;;;;;1.40;1.10;;;6.70;99.90;;;;;;5074553;28;20458;-69
2023/01/11 01:33:41;;;;;;;4.23;1.20;;;6.70;99.90;;;;;;5053090;28;20481;-71
2023/01/11 01:36:07;;;;;;;2.40;1.00;;;6.70;99.90;;;;;;5040407;28;20560;-72
2023/01/11 01:38:33;;;;;;;2.00;1.20;;;6.80;99.90;;;;;;5029405;28;20516;-72
2023/01/11 01:40:59;;;;;;;1.60;1.50;;;6.80;99.90;;;;;;5055436;28;20977;-72
2023/01/11 01:43:43;;;;;;;3.60;1.47;;;6.80;99.90;;;;;;5050983;28;20226;-72
2023/01/11 01:46:09;;;;;;;4.63;1.03;;;6.90;99.90;;;;;;5042720;28;20450;-72
2023/01/11 01:48:36;;;;;;;2.70;1.00;;;6.90;99.90;;;;;;5049198;28;20447;-72
2023/01/11 01:51:04;;;;;;;2.23;1.20;;;6.90;99.90;;;;;;5062272;28;20219;-72
2023/01/11 01:53:36;;;;;;;3.03;1.17;;;6.90;99.90;;;;;;5039549;28;20473;-72
2023/01/11 01:56:37;;;;;;;2.10;1.17;;;6.90;99.90;;;;;;5050240;28;20512;-72
2023/01/11 01:59:11;;;;;;;1.60;1.37;;;6.90;99.90;;;;;;5043842;28;20497;-72
2023/01/11 02:01:47;;;;;;;1.10;1.00;;;6.90;99.90;;;;;;5051678;28;20460;-72
2023/01/11 02:04:24;;;;;;;3.17;0.97;;;6.90;99.90;;;;;;5078443;28;20460;-72
2023/01/11 02:06:58;;;;;;;1.13;0.97;;;6.90;99.90;;;;;;5054103;28;20595;-73
2023/01/11 02:10:03;;;;;;;11.83;1.90;;;6.90;99.90;;;;;;5040627;28;20443;-72
2023/01/11 02:13:00;;;;;;;2.40;0.93;;;6.90;99.90;;;;;;5057686;28;20452;-72
2023/01/11 02:15:26;;;;;;;2.70;1.50;;;6.90;99.90;;;;;;5011067;28;20451;-74
2023/01/11 02:17:51;;;;;;;3.87;1.80;;;7.00;99.90;;;;;;5036843;28;20529;-72
2023/01/11 02:20:26;;;;;;;4.20;1.10;;;7.00;99.90;;;;;;5046242;28;20550;-72
2023/01/11 02:23:22;;;;;;;2.17;1.40;;;7.00;99.90;;;;;;5047344;28;20246;-71
2023/01/11 02:26:12;;;;;;;2.03;1.20;;;7.00;99.90;;;;;;5043499;28;20459;-72
2023/01/11 02:28:44;;;;;;;1.93;1.10;;;7.10;99.90;;;;;;5039948;28;20445;-71
2023/01/11 02:31:29;;;;;;;1.60;1.50;;;7.10;99.90;;;;;;5038692;28;20464;-72
2023/01/11 02:34:03;;;;;;;1.67;1.00;;;7.10;99.90;;;;;;5063820;28;20454;-72
2023/01/11 02:36:36;;;;;;;3.30;1.13;;;7.10;99.90;;;;;;5074126;28;20500;-72
2023/01/11 02:39:36;;;;;;;4.03;1.23;;;7.10;99.90;;;;;;5067302;28;20559;-72
2023/01/11 02:45:05;;;;;;;1.03;0.97;;;7.10;99.90;;;;;;5049682;28;20454;-72
2023/01/11 02:47:38;;;;;;;3.53;1.53;;;7.20;99.90;;;;;;5050079;28;20504;-72
2023/01/11 02:50:33;;;;;;;1.47;1.10;;;7.20;99.90;;;;;;5064265;28;20461;-72
2023/01/11 02:53:27;;;;;;;1.40;0.87;;;7.20;99.90;;;;;;5064538;28;20456;-72
2023/01/11 02:55:59;;;;;;;1.47;1.37;;;7.20;99.90;;;;;;5066680;28;20449;-72
2023/01/11 02:58:28;;;;;;;1.33;1.23;;;7.20;99.90;;;;;;5038272;28;20437;-70
2023/01/11 03:00:55;;;;;;;1.20;1.07;;;7.20;99.90;;;;;;5052200;28;20473;-72
2023/01/11 03:03:23;;;;;;;3.53;1.50;;;7.20;99.90;;;;;;5052510;28;20537;-72
2023/01/11 03:06:19;;;;;;;1.27;1.17;;;7.30;99.90;;;;;;5058216;28;20458;-72
2023/01/11 03:09:06;;;;;;;2.43;1.20;;;7.30;99.90;;;;;;5068996;28;20461;-72
2023/01/11 03:14:59;;;;;;;1.73;1.20;;;7.40;99.90;;;;;;5050553;28;20449;-72
2023/01/11 03:17:27;;;;;;;1.23;1.13;;;7.40;99.90;;;;;;5043325;28;20488;-71
2023/01/11 03:20:06;;;;;;;1.87;1.50;;;7.40;99.90;;;;;;5087669;28;20483;-72
2023/01/11 03:22:38;;;;;;;1.47;1.37;;;7.40;99.90;;;;;;5038560;28;20449;-71
2023/01/11 03:25:32;;;;;;;3.80;1.70;;;7.40;99.90;;;;;;5049157;28;20467;-71
2023/01/11 03:28:06;;;;;;;8.70;1.80;;;7.50;99.90;;;;;;5052845;28;21023;-71
2023/01/11 03:30:40;;;;;;;2.20;1.73;;;7.50;99.90;;;;;;5061053;28;20479;-71
2023/01/11 03:33:15;;;;;;;2.80;1.40;;;7.50;99.90;;;;;;5068813;28;20502;-72
2023/01/11 03:35:59;;;;;;;1.63;1.50;;;7.50;99.90;;;;;;5048730;28;20982;-72
2023/01/11 03:38:54;;;;;;;3.00;2.03;;;7.60;99.90;;;;;;5040957;28;20457;-71
2023/01/11 03:41:28;;;;;;;2.87;1.30;;;7.60;99.90;;;;;;5055663;28;21081;-72
2023/01/11 03:43:57;;;;;;;3.57;1.73;;;7.60;99.90;;;;;;5053498;28;20438;-71
2023/01/11 03:46:38;;;;;;;3.63;1.87;;;7.60;99.90;;;;;;5033352;28;20927;-71
2023/01/11 03:49:07;;;;;;;1.40;1.30;;;7.60;99.90;;;;;;5047091;28;20516;-72
2023/01/11 03:51:40;;;;;;;4.77;1.43;;;7.60;99.90;;;;;;5046371;28;20465;-71
2023/01/11 03:54:08;;;;;;;5.40;1.97;;;7.60;99.90;;;;;;5050308;28;20542;-72
2023/01/11 03:57:00;;;;;;;2.03;1.60;;;7.70;99.90;;;;;;5076129;28;20455;-72
2023/01/11 03:59:26;;;;;;;2.43;1.73;;;7.70;99.90;;;;;;5040828;28;20475;-71
2023/01/11 04:01:53;;;;;;;1.60;1.50;;;7.80;99.90;;;;;;5061132;28;20460;-72
2023/01/11 04:04:19;;;;;;;2.40;1.60;;;7.80;99.90;;;;;;5073727;28;20442;-72
2023/01/11 04:06:45;;;;;;;3.37;1.40;;;7.80;99.90;;;;;;5057722;28;20501;-71
2023/01/11 04:09:10;;;;;;;1.40;1.30;;;7.80;99.90;;;;;;5054478;28;20259;-72
2023/01/11 04:11:36;;;;;;;2.03;1.20;;;7.80;99.90;;;;;;5038807;28;20227;-72
2023/01/11 04:14:02;;;;;;;2.10;1.43;;;7.80;99.90;;;;;;5056388;28;20251;-72
2023/01/11 04:16:27;;;;;;;3.53;1.50;;;7.90;99.90;;;;;;5055647;28;20220;-71
2023/01/11 04:18:53;;;;;;;3.30;1.50;;;7.90;99.90;;;;;;5045192;28;20597;-72
2023/01/11 04:21:19;;;;;;;2.57;1.53;;;7.90;99.90;;;;;;5036102;28;20267;-71
2023/01/11 04:23:44;;;;;;;3.80;1.73;;;7.90;99.90;;;;;;5057380;28;20223;-72
2023/01/11 04:26:10;;;;;;;2.03;1.40;;;7.90;99.90;;;;;;5037124;28;20216;-72
2023/01/11 04:28:36;;;;;;;0.87;0.87;;;7.90;99.90;;;;;;5034435;28;20220;-71
2023/01/11 04:31:02;;;;;;;1.73;1.20;;;7.90;99.90;;;;;;5061843;28;20218;-72
2023/01/11 04:33:27;;;;;;;1.87;1.30;;;7.90;99.90;;;;;;5060239;28;20348;-71
2023/01/11 04:35:53;;;;;;;1.00;1.00;;;7.90;99.90;;;;;;5079346;28;20873;-72
2023/01/11 04:38:19;;;;;;;3.47;1.53;;;7.90;99.90;;;;;;5054583;28;20250;-72
2023/01/11 04:40:46;;;;;;;1.17;0.90;;;7.90;99.90;;;;;;5048289;28;20300;-72
2023/01/11 04:43:12;;;;;;;2.30;1.03;;;7.90;99.90;;;;;;5051258;28;20216;-72
2023/01/11 04:45:37;;;;;;;1.37;1.00;;;7.90;99.90;;;;;;5048275;28;20482;-71
2023/01/11 04:48:03;;;;;;;1.20;1.10;;;8.00;99.90;;;;;;5074568;28;20210;-72
2023/01/11 04:50:29;;;;;;;1.20;1.10;;;7.90;99.90;;;;;;5040382;28;20228;-71
2023/01/11 04:52:58;;;;;;;1.73;0.70;;;8.00;99.90;;;;;;5058436;28;20299;-72
2023/01/11 04:55:24;;;;;;;1.93;1.00;;;8.00;99.90;;;;;;5063367;28;20230;-71
2023/01/11 04:57:50;;;;;;;1.23;1.20;;;8.00;99.90;;;;;;5033505;28;20470;-72
2023/01/11 05:00:16;;;;;;;1.00;1.00;;;8.10;99.90;;;;;;5033969;28;20232;-70
2023/01/11 05:02:41;;;;;;;1.30;1.20;;;8.10;99.90;;;;;;5053404;28;20234;-71
2023/01/11 05:05:09;;;;;;;0.97;0.97;;;8.10;99.90;;;;;;5033016;28;20549;-72
2023/01/11 05:07:36;;;;;;;2.20;1.10;;;8.10;99.90;;;;;;5051597;28;20283;-71
2023/01/11 05:10:01;;;;;;;0.70;0.67;;;8.10;99.90;;;;;;5076373;28;20462;-71
2023/01/11 05:12:27;;;;;;;1.90;1.03;;;8.10;99.90;;;;;;5053029;28;20451;-71
2023/01/11 05:14:53;;;;;;;3.70;1.33;;;8.10;99.90;;;;;;5068364;28;20238;-72
2023/01/11 05:17:19;;;;;;;1.47;1.10;;;8.20;99.90;;;;;;5090953;28;20214;-71
2023/01/11 05:19:44;;;;;;;0.90;0.90;;;8.20;99.90;;;;;;5062771;28;20232;-72
2023/01/11 05:22:10;;;;;;;1.90;0.90;;;8.10;99.90;;;;;;5050685;28;20207;-71
2023/01/11 05:24:35;;;;;;;1.60;1.50;;;8.20;99.90;;;;;;5038776;28;20223;-72
2023/01/11 05:27:02;;;;;;;0.90;0.90;;;8.20;99.90;;;;;;5061363;28;20219;-71
2023/01/11 05:29:28;;;;;;;1.10;1.00;;;8.20;99.90;;;;;;5047959;28;20214;-71
2023/01/11 05:31:54;;;;;;;0.97;0.93;;;8.20;99.90;;;;;;5055113;28;20449;-71
2023/01/11 05:34:20;;;;;;;1.30;1.20;;;8.20;99.90;;;;;;5067887;28;20677;-71
2023/01/11 05:36:45;;;;;;;1.17;1.07;;;8.30;99.90;;;;;;5057496;28;20446;-71
2023/01/11 05:39:12;;;;;;;1.50;1.17;;;8.30;99.90;;;;;;5058222;28;20306;-72
2023/01/11 05:41:38;;;;;;;0.80;0.80;;;8.30;99.90;;;;;;5032956;28;20223;-71
2023/01/11 05:46:48;;;;;;;1.20;0.83;;;8.40;99.90;;;;;;5057972;28;20742;-72
2023/01/11 05:49:15;;;;;;;1.27;0.80;;;8.40;99.90;;;;;;5047972;28;20521;-71
2023/01/11 05:51:41;;;;;;;1.23;1.00;;;8.40;99.90;;;;;;5048343;28;20220;-72
2023/01/11 05:54:11;;;;;;;3.77;1.10;;;8.40;99.90;;;;;;5052783;28;20529;-71
2023/01/11 05:56:37;;;;;;;0.83;0.83;;;8.40;99.90;;;;;;5047070;28;20963;-72
2023/01/11 05:59:03;;;;;;;1.33;0.83;;;8.40;99.90;;;;;;5069502;28;20607;-72
2023/01/11 06:01:30;;;;;;;1.70;0.90;;;8.40;99.90;;;;;;5052229;28;20219;-72
2023/01/11 06:03:56;;;;;;;0.80;0.73;;;8.50;99.90;;;;;;5087060;28;20468;-73
2023/01/11 06:06:22;;;;;;;1.33;0.80;;;8.50;99.90;;;;;;5040696;28;20439;-72
2023/01/11 06:08:48;;;;;;;0.73;0.73;;;8.50;99.90;;;;;;5055753;28;20484;-72
2023/01/11 06:11:14;;;;;;;0.80;0.80;;;8.40;99.90;;;;;;5076863;28;20247;-71
2023/01/11 06:13:40;;;;;;;0.97;0.60;;;8.50;99.90;;;;;;5062590;28;20692;-70
2023/01/11 06:16:08;;;;;;;0.77;0.70;;;8.50;99.90;;;;;;5035790;28;20890;-72
2023/01/11 06:18:36;;;;;;;0.73;0.73;;;8.50;99.90;;;;;;5071026;28;20462;-71
2023/01/11 06:21:03;;;;;;;1.23;1.13;;;8.50;99.90;;;;;;5031990;28;20470;-72
2023/01/11 06:23:30;;;;;;;1.37;0.77;;;8.60;99.90;;;;;;5034848;28;20499;-72
2023/01/11 06:26:00;;;;;;;1.53;1.00;;;8.50;99.90;;;;;;5072049;28;20857;-70
2023/01/11 06:28:25;;;;;;;1.20;0.83;;;8.50;99.90;;;;;;5078925;28;20457;-72
2023/01/11 06:30:53;;;;;;;0.87;0.87;;;8.60;99.90;;;;;;5049171;28;20511;-71
2023/01/11 06:33:19;;;;;;;1.30;1.20;;;8.50;99.90;;;;;;5054711;28;20302;-71
2023/01/11 06:35:45;;;;;;;3.00;1.50;;;8.60;99.90;;;;;;5051483;28;20537;-71
2023/01/11 06:38:12;;;;;;;1.90;1.10;;;8.60;99.90;;;;;;5031718;28;20879;-73
2023/01/11 06:40:39;;;;;;;1.20;0.80;;;8.60;99.90;;;;;;5057402;28;20800;-72
2023/01/11 06:43:06;;;;;;;0.83;0.70;;;8.60;99.90;;;;;;5057569;28;20453;-72
2023/01/11 06:45:32;;;;;;;0.90;0.90;;;8.60;99.90;;;;;;5054805;28;20980;-72
2023/01/11 06:47:58;;;;;;;1.30;1.20;;;8.60;99.90;;;;;;5058722;28;20489;-72
2023/01/11 06:50:24;;;;;;;1.20;1.20;;;8.70;99.90;;;;;;5059809;28;20465;-71
2023/01/11 06:52:58;;;;;;;1.80;1.00;;;8.70;99.90;;;;;;5064241;28;20223;-71
2023/01/11 06:55:25;;;;;;;0.87;0.87;;;8.70;99.90;;;;;;5065874;28;20458;-70
2023/01/11 06:57:52;;;;;;;1.13;1.03;;;8.70;99.90;;;;;;5060507;28;20461;-72
2023/01/11 07:00:18;;;;;;;1.53;1.40;;;8.70;99.90;;;;;;5045734;28;20485;-71
2023/01/11 07:02:44;;;;;;;4.30;3.30;;;8.70;99.90;;;;;;5052403;28;20454;-71
2023/01/11 07:05:11;;;;;;;3.57;3.20;;;8.70;99.90;;;;;;5049345;28;20455;-72
2023/01/11 07:07:37;;;;;;;3.53;3.20;;;8.70;99.90;;;;;;5045052;28;20457;-71
2023/01/11 07:10:09;;;;;;;4.53;3.43;;;8.70;99.90;;;;;;5050362;28;20458;-72
2023/01/11 07:12:35;;;;;;;5.77;4.00;;;8.70;99.90;;;;;;5055795;28;20461;-72
2023/01/11 07:15:03;;;;;;;5.63;4.20;;;8.70;99.90;;;;;;5035894;28;20451;-71
2023/01/11 07:17:29;;;;;;;5.40;3.03;;;8.70;99.90;;;;;;5052294;28;20227;-71
2023/01/11 07:19:55;;;;;;;6.20;4.40;;;8.80;99.90;;;;;;5042108;28;20470;-71
2023/01/11 07:22:21;;;;;;;7.93;4.30;;;8.80;99.90;;;;;;5084144;28;20344;-71
2023/01/11 07:24:47;;;;;;;8.30;5.07;;;8.80;99.90;;;;;;5094297;28;20250;-72
2023/01/11 07:27:13;;;;;;;14.00;8.00;;;8.70;99.90;;;;;;5075303;28;20456;-71
2023/01/11 07:29:39;;;;;;;13.57;8.10;;;8.70;99.90;;;;;;5093992;28;20456;-72
2023/01/11 07:32:05;;;;;;;17.27;9.80;;;8.80;99.90;;;;;;5076215;28;20222;-72
2023/01/11 07:34:31;;;;;;;17.13;11.30;;;8.80;99.90;;;;;;5055407;28;20812;-71
2023/01/11 07:36:57;;;;;;;16.77;10.33;;;8.80;99.90;;;;;;5052763;28;20461;-70
2023/01/11 07:39:22;;;;;;;21.77;11.77;;;8.80;99.90;;;;;;5052118;28;20231;-72
2023/01/11 07:44:32;;;;;;;16.33;9.87;;;8.80;99.90;;;;;;5071427;28;20701;-71
2023/01/11 07:46:58;;;;;;;15.33;10.70;;;8.90;99.90;;;;;;5074183;28;20453;-72
2023/01/11 07:49:23;;;;;;;14.97;10.03;;;8.90;99.90;;;;;;5082202;28;20219;-72
2023/01/11 07:51:50;;;;;;;13.47;10.00;;;8.90;99.90;;;;;;5078317;28;20710;-72
2023/01/11 07:54:17;;;;;;;12.10;9.33;;;8.90;99.90;;;;;;5066335;28;20709;-72
2023/01/11 07:56:43;;;;;;;12.47;8.40;;;8.90;99.90;;;;;;5061361;28;20462;-72
2023/01/11 07:59:09;;;;;;;8.87;7.17;;;8.90;99.90;;;;;;5062614;28;20470;-72
2023/01/11 08:01:35;;;;;;;15.50;10.70;;;8.90;99.90;;;;;;5054601;28;20227;-72
2023/01/11 08:04:01;;;;;;;14.03;10.30;;;8.90;99.90;;;;;;5052248;28;20447;-72
2023/01/11 08:06:27;;;;;;;22.60;13.77;;;8.90;99.90;;;;;;5036050;28;20444;-72
2023/01/11 08:08:53;;;;;;;22.40;16.17;;;8.90;99.90;;;;;;5045678;28;20530;-72
2023/01/11 08:16:58;;;;;;;38.67;22.80;;;8.90;99.90;;;;;;5091141;28;20471;-71
2023/01/11 08:19:23;;;;;;;23.17;14.90;;;9.00;99.90;;;;;;5091199;28;21051;-72
2023/01/11 08:21:49;;;;;;;18.63;9.10;;;9.00;99.90;;;;;;5069231;28;20300;-72
2023/01/11 08:24:15;;;;;;;6.87;5.40;;;9.00;99.90;;;;;;5047465;28;20233;-72
2023/01/11 08:26:41;;;;;;;4.70;3.90;;;9.00;99.90;;;;;;5043643;28;20450;-73
2023/01/11 08:29:07;;;;;;;6.23;3.00;;;9.00;99.90;;;;;;5060263;28;20219;-72
2023/01/11 08:31:32;;;;;;;2.00;1.83;;;9.00;99.90;;;;;;5057366;28;20246;-72
2023/01/11 08:33:58;;;;;;;1.60;1.50;;;9.00;99.90;;;;;;5047963;28;20314;-73
2023/01/11 08:36:26;;;;;;;2.40;1.70;;;9.00;99.90;;;;;;5049106;28;20361;-73
2023/01/11 08:38:55;;;;;;;1.83;1.23;;;9.00;99.90;;;;;;5050979;28;20216;-72
2023/01/11 08:41:22;;;;;;;1.00;0.90;;;9.00;99.90;;;;;;5047923;28;20458;-72
2023/01/11 08:43:48;;;;;;;1.20;0.90;;;9.10;99.90;;;;;;5057146;28;20549;-72
2023/01/11 08:46:15;;;;;;;0.87;0.67;;;9.10;99.90;;;;;;5040821;28;20451;-72
2023/01/11 08:48:41;;;;;;;0.50;0.50;;;9.10;99.90;;;;;;5056672;28;20447;-71
2023/01/11 08:51:07;;;;;;;0.50;0.50;;;9.10;99.90;;;;;;5071787;28;20805;-72
2023/01/11 08:53:33;;;;;;;0.80;0.50;;;9.10;99.90;;;;;;5050228;28;20219;-72
2023/01/11 08:55:59;;;;;;;0.70;0.50;;;9.10;99.90;;;;;;5049649;28;20985;-72
2023/01/11 08:58:24;;;;;;;0.60;0.40;;;9.10;99.90;;;;;;5051831;28;20309;-72
2023/01/11 09:00:50;;;;;;;0.40;0.40;;;9.10;99.90;;;;;;5050371;28;20255;-73
2023/01/11 09:03:17;;;;;;;0.40;0.30;;;9.10;99.90;;;;;;5063194;28;20234;-73
2023/01/11 09:05:44;;;;;;;0.40;0.40;;;9.10;99.90;;;;;;5050532;28;20458;-72
2023/01/11 09:08:10;;;;;;;0.40;0.40;;;9.10;99.90;;;;;;5039447;28;20463;-72
2023/01/11 09:10:37;;;;;;;0.60;0.40;;;9.20;99.90;;;;;;5023055;28;20555;-72
2023/01/11 09:13:03;;;;;;;0.40;0.40;;;9.20;99.90;;;;;;5040535;28;20467;-73
2023/01/11 09:15:29;;;;;;;0.43;0.40;;;9.20;99.90;;;;;;5048738;28;20486;-72
2023/01/11 09:17:55;;;;;;;0.80;0.50;;;9.20;99.90;;;;;;5046251;28;20475;-73
2023/01/11 09:20:21;;;;;;;0.40;0.40;;;9.20;99.90;;;;;;5064182;28;20790;-73
2023/01/11 09:22:50;;;;;;;0.40;0.40;;;9.20;99.90;;;;;;5073463;28;20227;-72
2023/01/11 09:25:17;;;;;;;0.40;0.30;;;9.20;99.90;;;;;;5056600;28;20450;-73
2023/01/11 09:27:44;;;;;;;0.50;0.50;;;9.20;99.90;;;;;;5053500;28;20466;-72
2023/01/11 09:30:11;;;;;;;1.07;0.80;;;9.20;99.90;;;;;;5063430;28;20461;-72
2023/01/11 09:32:37;;;;;;;0.73;0.70;;;9.30;99.90;;;;;;5056707;28;20481;-73
2023/01/11 09:35:03;;;;;;;0.83;0.67;;;9.30;99.90;;;;;;5052019;28;20455;-72
2023/01/11 09:37:29;;;;;;;0.50;0.50;;;9.30;99.90;;;;;;5047189;28;20215;-73
2023/01/11 09:39:58;;;;;;;0.47;0.40;;;9.30;99.90;;;;;;5049615;28;20466;-72
2023/01/11 09:42:30;;;;;;;0.60;0.40;;;9.30;99.90;;;;;;5056748;28;20459;-72
2023/01/11 09:45:05;;;;;;;0.50;0.40;;;9.30;99.90;;;;;;5060769;28;20481;-72
2023/01/11 09:47:43;;;;;;;0.40;0.40;;;9.30;99.90;;;;;;5055282;28;20479;-73
2023/01/11 09:50:23;;;;;;;0.40;0.37;;;9.30;99.90;;;;;;5021943;28;20479;-73
2023/01/11 09:53:06;;;;;;;0.30;0.30;;;9.30;99.90;;;;;;5051934;28;20847;-72
2023/01/11 09:55:45;;;;;;;0.40;0.30;;;9.40;99.90;;;;;;5044566;28;20454;-73
2023/01/11 09:58:28;;;;;;;0.70;0.70;;;9.40;99.90;;;;;;5057198;28;20457;-73
2023/01/11 10:01:09;;;;;;;0.40;0.40;;;9.40;99.90;;;;;;5040999;28;20470;-72
2023/01/11 10:04:12;;;;;;;0.73;0.73;;;9.40;99.90;;;;;;5030886;28;20537;-72
2023/01/11 10:06:38;;;;;;;1.23;0.60;;;9.40;99.90;;;;;;5053312;28;20452;-72
2023/01/11 10:09:11;;;;;;;1.00;0.90;;;9.50;99.90;;;;;;5031675;28;20454;-72
2023/01/11 10:12:04;;;;;;;0.70;0.70;;;9.50;99.90;;;;;;5064473;28;20254;-72
2023/01/11 10:14:41;;;;;;;2.60;0.60;;;9.50;99.90;;;;;;5081101;28;20447;-73
2023/01/11 10:17:33;;;;;;;0.70;0.70;;;9.50;99.90;;;;;;5030548;28;20487;-72
2023/01/11 10:20:10;;;;;;;0.60;0.60;;;9.50;99.90;;;;;;5051786;28;20612;-73
2023/01/11 10:22:42;;;;;;;1.43;0.90;;;9.60;99.90;;;;;;5072111;28;20458;-72
2023/01/11 10:25:20;;;;;;;3.70;2.27;;;9.60;99.90;;;;;;5048233;28;20515;-72
2023/01/11 10:28:01;;;;;;;3.10;2.40;;;9.60;99.90;;;;;;5036012;28;20455;-72
2023/01/11 10:39:54;;;;;;;3.00;1.77;;;9.70;99.90;;;;;;5061788;28;20535;-72
2023/01/11 10:42:22;;;;;;;1.63;1.53;;;9.70;99.90;;;;;;5053980;28;20441;-72
2023/01/11 10:45:05;;;;;;;2.00;1.90;;;9.70;99.90;;;;;;5043048;28;20446;-72
2023/01/11 10:47:38;;;;;;;2.07;1.97;;;9.70;99.90;;;;;;5040276;28;20457;-72
2023/01/11 10:50:18;;;;;;;2.70;2.53;;;9.70;99.90;;;;;;5060123;28;20477;-73
2023/01/11 10:52:59;;;;;;;2.73;2.23;;;9.70;99.90;;;;;;5062282;28;21045;-72
2023/01/11 10:55:43;;;;;;;1.73;1.10;;;9.70;99.90;;;;;;5046392;28;20966;-70
2023/01/11 10:58:38;;;;;;;2.57;1.33;;;9.80;99.90;;;;;;5048386;28;20531;-73
2023/01/11 11:01:21;;;;;;;1.43;1.20;;;9.80;99.90;;;;;;5063334;28;20488;-72
2023/01/11 11:04:25;;;;;;;1.33;0.70;;;9.80;99.90;;;;;;5058981;28;20457;-73
2023/01/11 11:07:01;;;;;;;0.83;0.83;;;9.80;99.90;;;;;;5027512;28;20454;-72
2023/01/11 11:09:39;;;;;;;0.70;0.70;;;9.90;99.90;;;;;;5052788;28;20495;-72
2023/01/11 11:12:09;;;;;;;0.60;0.60;;;9.90;99.90;;;;;;5035105;28;20461;-72
2023/01/11 11:14:51;;;;;;;0.70;0.70;;;9.90;99.90;;;;;;5031565;28;20458;-73
2023/01/11 11:17:27;;;;;;;0.93;0.70;;;9.90;99.90;;;;;;5047474;28;20481;-73
2023/01/11 11:19:52;;;;;;;0.60;0.50;;;10.00;99.90;;;;;;5033001;28;20466;-73
2023/01/11 11:22:19;;;;;;;0.73;0.73;;;10.00;99.90;;;;;;5023213;28;20479;-73
2023/01/11 11:25:00;;;;;;;0.90;0.90;;;10.00;99.90;;;;;;5045473;28;20220;-73
2023/01/11 11:27:36;;;;;;;1.00;1.00;;;10.10;99.90;;;;;;5057296;28;20831;-72
2023/01/11 11:30:03;;;;;;;1.53;0.80;;;10.10;99.90;;;;;;5064944;28;20468;-73
2023/01/11 11:32:34;;;;;;;0.60;0.60;;;10.10;99.90;;;;;;5049029;28;20457;-73
2023/01/11 11:35:01;;;;;;;0.63;0.63;;;10.20;99.90;;;;;;5074100;28;20520;-73
2023/01/11 11:37:38;;;;;;;0.80;0.80;;;10.20;99.90;;;;;;5062047;28;20446;-73
2023/01/11 11:40:04;;;;;;;1.03;0.73;;;10.20;99.90;;;;;;5068279;28;20469;-73
2023/01/11 11:42:30;;;;;;;0.70;0.70;;;10.20;99.90;;;;;;5037127;28;20450;-73
2023/01/11 11:45:08;;;;;;;1.10;0.67;;;10.20;99.90;;;;;;5088528;28;20463;-73
2023/01/11 11:47:34;;;;;;;0.50;0.47;;;10.20;99.90;;;;;;5060126;28;20462;-73
2023/01/11 11:50:18;;;;;;;1.10;0.77;;;10.30;99.90;;;;;;5042250;28;20933;-73
2023/01/11 11:52:49;;;;;;;1.90;1.47;;;10.30;99.90;;;;;;5057864;28;20454;-73
2023/01/11 11:55:18;;;;;;;1.03;1.03;;;10.30;99.90;;;;;;5056424;28;20464;-73
2023/01/11 11:57:43;;;;;;;1.33;1.03;;;10.30;99.90;;;;;;5038429;28;20454;-72
2023/01/11 12:00:21;;;;;;;1.60;1.33;;;10.30;99.90;;;;;;5040944;28;20470;-73
2023/01/11 12:02:56;;;;;;;2.10;1.90;;;10.30;99.90;;;;;;5034724;28;20219;-72
2023/01/11 12:05:22;;;;;;;5.70;5.10;;;10.30;99.90;;;;;;5082444;28;20472;-73
2023/01/11 12:07:50;;;;;;;17.83;10.67;;;10.20;99.90;;;;;;5074545;28;20463;-72
2023/01/11 12:10:18;;;;;;;9.07;6.20;;;10.20;99.90;;;;;;5086512;28;20471;-73
2023/01/11 12:13:02;;;;;;;3.47;2.90;;;10.20;99.90;;;;;;5064672;28;20546;-73
2023/01/11 12:15:29;;;;;;;2.40;2.20;;;10.20;99.90;;;;;;5049025;28;20453;-73
2023/01/11 12:18:33;;;;;;;1.30;1.20;;;10.20;99.90;;;;;;5063072;28;20506;-72
2023/01/11 12:21:08;;;;;;;0.80;0.80;;;10.20;99.90;;;;;;5038609;28;20479;-73
2023/01/11 12:23:34;;;;;;;0.87;0.87;;;10.20;99.90;;;;;;5056169;28;20450;-73
2023/01/11 12:26:33;;;;;;;0.77;0.77;;;10.20;99.90;;;;;;5070111;28;20537;-73
2023/01/11 12:29:08;;;;;;;1.03;0.70;;;10.20;99.90;;;;;;5047049;28;20241;-72
2023/01/11 12:31:34;;;;;;;2.80;1.33;;;10.20;99.90;;;;;;5055727;28;20465;-73
2023/01/11 12:34:36;;;;;;;0.73;0.73;;;10.20;99.90;;;;;;5049353;28;20810;-72
2023/01/11 12:37:25;;;;;;;1.20;1.10;;;10.20;99.90;;;;;;5052949;28;20218;-70
2023/01/11 12:39:53;;;;;;;1.60;1.50;;;10.20;99.90;;;;;;5049011;28;20478;-73
2023/01/11 12:42:54;;;;;;;3.77;1.30;;;10.20;99.90;;;;;;5056515;28;20455;-73
2023/01/11 12:45:26;;;;;;;1.17;1.07;;;10.20;99.90;;;;;;5009048;28;20438;-73
2023/01/11 12:48:10;;;;;;;1.00;0.97;;;10.20;99.90;;;;;;5051590;28;20456;-73
2023/01/11 12:51:24;;;;;;;0.90;0.90;;;10.20;99.90;;;;;;5055173;28;20473;-73
2023/01/11 12:54:01;;;;;;;2.67;0.80;;;10.20;99.90;;;;;;4978657;28;20528;-73
2023/01/11 12:56:39;;;;;;;0.70;0.60;;;10.20;99.90;;;;;;5043826;28;20457;-72
2023/01/11 12:59:18;;;;;;;1.30;0.90;;;10.20;99.90;;;;;;5068190;28;20467;-73
2023/01/11 13:01:43;;;;;;;7.20;1.10;;;10.20;99.90;;;;;;5052718;28;20985;-72
2023/01/11 13:04:34;;;;;;;1.90;1.03;;;10.20;99.90;;;;;;5069452;28;20552;-73
2023/01/11 13:07:13;;;;;;;3.27;1.20;;;10.20;99.90;;;;;;5051551;28;20465;-73
2023/01/11 13:10:03;;;;;;;1.57;1.00;;;10.20;99.90;;;;;;5066076;28;20512;-73
2023/01/11 13:12:36;;;;;;;1.07;0.83;;;10.10;99.90;;;;;;5075725;28;20449;-73
2023/01/11 13:15:19;;;;;;;3.97;0.90;;;10.10;99.90;;;;;;5078766;28;20573;-73
2023/01/11 13:17:56;;;;;;;3.93;1.00;;;10.10;99.90;;;;;;5059775;28;20541;-73
2023/01/11 13:20:43;;;;;;;5.97;1.33;;;10.10;99.90;;;;;;5049659;28;20449;-72
2023/01/11 13:23:37;;;;;;;2.23;1.20;;;10.00;99.90;;;;;;5052714;28;21000;-73
2023/01/11 13:26:29;;;;;;;4.17;2.30;;;10.00;99.90;;;;;;5076292;28;20452;-73
2023/01/11 13:29:04;;;;;;;2.67;2.10;;;10.00;99.90;;;;;;5054966;28;20477;-73
2023/01/11 13:31:33;;;;;;;2.83;1.63;;;10.00;99.90;;;;;;5074422;28;20459;-73
2023/01/11 13:34:22;;;;;;;6.43;4.30;;;10.00;99.90;;;;;;5059280;28;20467;-73
2023/01/11 13:36:54;;;;;;;6.53;4.90;;;10.00;99.90;;;;;;5057841;28;20482;-73
2023/01/11 13:39:23;;;;;;;7.43;5.27;;;10.00;99.90;;;;;;5048101;28;20885;-72
2023/01/11 13:41:53;;;;;;;8.60;4.57;;;10.00;99.90;;;;;;5069037;28;20464;-73
2023/01/11 13:44:37;;;;;;;7.10;4.77;;;9.90;99.90;;;;;;5068336;28;20446;-72
2023/01/11 13:47:25;;;;;;;18.40;12.07;;;9.90;99.90;;;;;;5068272;28;20530;-72
2023/01/11 13:50:09;;;;;;;17.33;11.43;;;9.90;99.90;;;;;;5053163;28;20568;-72
2023/01/11 13:52:46;;;;;;;16.77;8.43;;;9.90;99.90;;;;;;5068235;28;20464;-73
2023/01/11 13:55:27;;;;;;;12.17;6.90;;;9.90;99.90;;;;;;5053861;28;20513;-73
2023/01/11 13:58:02;;;;;;;38.47;20.63;;;9.90;99.90;;;;;;5058096;28;20459;-72